sensor_id;sensor_type;location;lat;lon;timestamp;pressure;altitude;pressure_sealevel;temperature;humidity
57250;BME280;43102;52.014;-0.680;2023-04-19T00:00:02;101835;;;10.58;68.84
57250;BME280;43102;52.014;-0.680;2023-04-19T00:01:00;101833;;;10.57;69.10
57250;BME280;43102;52.014;-0.680;2023-04-19T00:02:00;101833;;;10.57;69.10
57250;BME280;43102;52.014;-0.680;2023-04-19T00:03:00;101833;;;10.57;69.10
57250;BME280;43102;52.014;-0.680;2023-04-19T00:04:00;101833;;;10.57;69.10
57250;BME280;43102;52.014;-0.680;2023-04-19T00:05:00;101833;;;10.57;69.10
57250;BME280;43102;52.014;-0.680;2023-04-19T00:06:00;101838;;;10.56;69.06
57250;BME280;43102;52.014;-0.680;2023-04-19T00:07:00;101838;;;10.56;69.06
57250;BME280;43102;52.014;-0.680;2023-04-19T00:08:00;101838;;;10.56;69.06
57250;BME280;43102;52.014;-0.680;2023-04-19T00:09:00;101838;;;10.56;69.06
57250;BME280;43102;52.014;-0.680;2023-04-19T00:10:00;101838;;;10.56;69.06
57250;BME280;43102;52.014;-0.680;2023-04-19T00:11:00;101839;;;10.64;68.84
57250;BME280;43102;52.014;-0.680;2023-04-19T00:12:00;101839;;;10.64;68.84
57250;BME280;43102;52.014;-0.680;2023-04-19T00:13:00;101839;;;10.64;68.84
57250;BME280;43102;52.014;-0.680;2023-04-19T00:14:00;101839;;;10.64;68.84
57250;BME280;43102;52.014;-0.680;2023-04-19T00:15:00;101839;;;10.64;68.84
57250;BME280;43102;52.014;-0.680;2023-04-19T00:16:00;101836;;;10.49;69.34
57250;BME280;43102;52.014;-0.680;2023-04-19T00:17:00;101836;;;10.49;69.34
57250;BME280;43102;52.014;-0.680;2023-04-19T00:18:00;101836;;;10.49;69.34
57250;BME280;43102;52.014;-0.680;2023-04-19T00:19:00;101836;;;10.49;69.34
57250;BME280;43102;52.014;-0.680;2023-04-19T00:20:00;101836;;;10.49;69.34
57250;BME280;43102;52.014;-0.680;2023-04-19T00:21:00;101840;;;10.44;69.73
57250;BME280;43102;52.014;-0.680;2023-04-19T00:22:00;101840;;;10.44;69.73
57250;BME280;43102;52.014;-0.680;2023-04-19T00:23:00;101840;;;10.44;69.73
57250;BME280;43102;52.014;-0.680;2023-04-19T00:24:01;101840;;;10.44;69.73
57250;BME280;43102;52.014;-0.680;2023-04-19T00:25:00;101840;;;10.44;69.73
57250;BME280;43102;52.014;-0.680;2023-04-19T00:26:01;101836;;;10.64;69.14
57250;BME280;43102;52.014;-0.680;2023-04-19T00:27:00;101836;;;10.64;69.14
57250;BME280;43102;52.014;-0.680;2023-04-19T00:28:00;101836;;;10.64;69.14
57250;BME280;43102;52.014;-0.680;2023-04-19T00:29:00;101836;;;10.64;69.14
57250;BME280;43102;52.014;-0.680;2023-04-19T00:30:00;101836;;;10.64;69.14
57250;BME280;43102;52.014;-0.680;2023-04-19T00:31:00;101826;;;10.52;69.49
57250;BME280;43102;52.014;-0.680;2023-04-19T00:32:00;101826;;;10.52;69.49
57250;BME280;43102;52.014;-0.680;2023-04-19T00:33:00;101826;;;10.52;69.49
57250;BME280;43102;52.014;-0.680;2023-04-19T00:34:00;101826;;;10.52;69.49
57250;BME280;43102;52.014;-0.680;2023-04-19T00:35:00;101826;;;10.52;69.49
57250;BME280;43102;52.014;-0.680;2023-04-19T00:36:00;101826;;;10.60;69.33
57250;BME280;43102;52.014;-0.680;2023-04-19T00:37:00;101826;;;10.60;69.33
57250;BME280;43102;52.014;-0.680;2023-04-19T00:38:00;101826;;;10.60;69.33
57250;BME280;43102;52.014;-0.680;2023-04-19T00:39:00;101826;;;10.60;69.33
57250;BME280;43102;52.014;-0.680;2023-04-19T00:40:00;101826;;;10.60;69.33
57250;BME280;43102;52.014;-0.680;2023-04-19T00:41:00;101824;;;10.63;69.33
57250;BME280;43102;52.014;-0.680;2023-04-19T00:42:00;101824;;;10.63;69.33
57250;BME280;43102;52.014;-0.680;2023-04-19T00:43:00;101824;;;10.63;69.33
57250;BME280;43102;52.014;-0.680;2023-04-19T00:44:00;101824;;;10.63;69.33
57250;BME280;43102;52.014;-0.680;2023-04-19T00:45:00;101824;;;10.63;69.33
57250;BME280;43102;52.014;-0.680;2023-04-19T00:46:00;101825;;;10.53;69.68
57250;BME280;43102;52.014;-0.680;2023-04-19T00:47:00;101825;;;10.53;69.68
57250;BME280;43102;52.014;-0.680;2023-04-19T00:48:00;101825;;;10.53;69.68
57250;BME280;43102;52.014;-0.680;2023-04-19T00:49:00;101825;;;10.53;69.68
57250;BME280;43102;52.014;-0.680;2023-04-19T00:50:00;101825;;;10.53;69.68
57250;BME280;43102;52.014;-0.680;2023-04-19T00:51:00;101816;;;10.54;69.79
57250;BME280;43102;52.014;-0.680;2023-04-19T00:52:00;101816;;;10.54;69.79
57250;BME280;43102;52.014;-0.680;2023-04-19T00:53:00;101816;;;10.54;69.79
57250;BME280;43102;52.014;-0.680;2023-04-19T00:54:01;101816;;;10.54;69.79
57250;BME280;43102;52.014;-0.680;2023-04-19T00:55:00;101816;;;10.54;69.79
57250;BME280;43102;52.014;-0.680;2023-04-19T00:56:00;101825;;;10.65;69.44
57250;BME280;43102;52.014;-0.680;2023-04-19T00:57:00;101825;;;10.65;69.44
57250;BME280;43102;52.014;-0.680;2023-04-19T00:58:00;101825;;;10.65;69.44
57250;BME280;43102;52.014;-0.680;2023-04-19T00:59:00;101825;;;10.65;69.44
57250;BME280;43102;52.014;-0.680;2023-04-19T01:00:00;101825;;;10.65;69.44
57250;BME280;43102;52.014;-0.680;2023-04-19T01:01:00;101816;;;10.47;69.98
57250;BME280;43102;52.014;-0.680;2023-04-19T01:02:00;101816;;;10.47;69.98
57250;BME280;43102;52.014;-0.680;2023-04-19T01:03:00;101816;;;10.47;69.98
57250;BME280;43102;52.014;-0.680;2023-04-19T01:04:00;101816;;;10.47;69.98
57250;BME280;43102;52.014;-0.680;2023-04-19T01:05:00;101816;;;10.47;69.98
57250;BME280;43102;52.014;-0.680;2023-04-19T01:06:00;101809;;;10.47;70.11
57250;BME280;43102;52.014;-0.680;2023-04-19T01:07:00;101809;;;10.47;70.11
57250;BME280;43102;52.014;-0.680;2023-04-19T01:08:00;101809;;;10.47;70.11
57250;BME280;43102;52.014;-0.680;2023-04-19T01:09:00;101809;;;10.47;70.11
57250;BME280;43102;52.014;-0.680;2023-04-19T01:10:00;101809;;;10.47;70.11
57250;BME280;43102;52.014;-0.680;2023-04-19T01:11:00;101804;;;10.50;69.99
57250;BME280;43102;52.014;-0.680;2023-04-19T01:12:00;101804;;;10.50;69.99
57250;BME280;43102;52.014;-0.680;2023-04-19T01:13:00;101804;;;10.50;69.99
57250;BME280;43102;52.014;-0.680;2023-04-19T01:14:00;101804;;;10.50;69.99
57250;BME280;43102;52.014;-0.680;2023-04-19T01:15:00;101804;;;10.50;69.99
57250;BME280;43102;52.014;-0.680;2023-04-19T01:16:00;101804;;;10.49;70.25
57250;BME280;43102;52.014;-0.680;2023-04-19T01:17:00;101804;;;10.49;70.25
57250;BME280;43102;52.014;-0.680;2023-04-19T01:18:00;101804;;;10.49;70.25
57250;BME280;43102;52.014;-0.680;2023-04-19T01:19:00;101804;;;10.49;70.25
57250;BME280;43102;52.014;-0.680;2023-04-19T01:20:01;101804;;;10.49;70.25
57250;BME280;43102;52.014;-0.680;2023-04-19T01:21:00;101801;;;10.48;70.24
57250;BME280;43102;52.014;-0.680;2023-04-19T01:22:00;101801;;;10.48;70.24
57250;BME280;43102;52.014;-0.680;2023-04-19T01:23:00;101801;;;10.48;70.24
57250;BME280;43102;52.014;-0.680;2023-04-19T01:24:00;101801;;;10.48;70.24
57250;BME280;43102;52.014;-0.680;2023-04-19T01:25:00;101801;;;10.48;70.24
57250;BME280;43102;52.014;-0.680;2023-04-19T01:26:00;101801;;;10.54;70.13
57250;BME280;43102;52.014;-0.680;2023-04-19T01:27:00;101801;;;10.54;70.13
57250;BME280;43102;52.014;-0.680;2023-04-19T01:28:00;101801;;;10.54;70.13
57250;BME280;43102;52.014;-0.680;2023-04-19T01:29:00;101801;;;10.54;70.13
57250;BME280;43102;52.014;-0.680;2023-04-19T01:30:00;101801;;;10.54;70.13
57250;BME280;43102;52.014;-0.680;2023-04-19T01:31:00;101800;;;10.41;70.57
57250;BME280;43102;52.014;-0.680;2023-04-19T01:32:00;101800;;;10.41;70.57
57250;BME280;43102;52.014;-0.680;2023-04-19T01:33:00;101800;;;10.41;70.57
57250;BME280;43102;52.014;-0.680;2023-04-19T01:34:00;101800;;;10.41;70.57
57250;BME280;43102;52.014;-0.680;2023-04-19T01:35:00;101800;;;10.41;70.57
57250;BME280;43102;52.014;-0.680;2023-04-19T01:36:00;101788;;;10.48;70.49
57250;BME280;43102;52.014;-0.680;2023-04-19T01:37:00;101788;;;10.48;70.49
57250;BME280;43102;52.014;-0.680;2023-04-19T01:38:00;101788;;;10.48;70.49
57250;BME280;43102;52.014;-0.680;2023-04-19T01:39:00;101788;;;10.48;70.49
57250;BME280;43102;52.014;-0.680;2023-04-19T01:40:00;101788;;;10.48;70.49
57250;BME280;43102;52.014;-0.680;2023-04-19T01:41:00;101781;;;10.54;70.22
57250;BME280;43102;52.014;-0.680;2023-04-19T01:42:00;101781;;;10.54;70.22
57250;BME280;43102;52.014;-0.680;2023-04-19T01:43:00;101781;;;10.54;70.22
57250;BME280;43102;52.014;-0.680;2023-04-19T01:44:00;101781;;;10.54;70.22
57250;BME280;43102;52.014;-0.680;2023-04-19T01:45:00;101781;;;10.54;70.22
57250;BME280;43102;52.014;-0.680;2023-04-19T01:46:00;101785;;;10.42;70.79
57250;BME280;43102;52.014;-0.680;2023-04-19T01:47:00;101785;;;10.42;70.79
57250;BME280;43102;52.014;-0.680;2023-04-19T01:48:00;101785;;;10.42;70.79
57250;BME280;43102;52.014;-0.680;2023-04-19T01:49:00;101785;;;10.42;70.79
57250;BME280;43102;52.014;-0.680;2023-04-19T01:50:00;101785;;;10.42;70.79
57250;BME280;43102;52.014;-0.680;2023-04-19T01:51:00;101774;;;10.55;70.33
57250;BME280;43102;52.014;-0.680;2023-04-19T01:52:00;101774;;;10.55;70.33
57250;BME280;43102;52.014;-0.680;2023-04-19T01:53:00;101774;;;10.55;70.33
57250;BME280;43102;52.014;-0.680;2023-04-19T01:54:00;101774;;;10.55;70.33
57250;BME280;43102;52.014;-0.680;2023-04-19T01:55:00;101774;;;10.55;70.33
57250;BME280;43102;52.014;-0.680;2023-04-19T01:56:00;101772;;;10.44;70.77
57250;BME280;43102;52.014;-0.680;2023-04-19T01:57:00;101772;;;10.44;70.77
57250;BME280;43102;52.014;-0.680;2023-04-19T01:58:00;101772;;;10.44;70.77
57250;BME280;43102;52.014;-0.680;2023-04-19T01:59:00;101772;;;10.44;70.77
57250;BME280;43102;52.014;-0.680;2023-04-19T02:00:00;101772;;;10.44;70.77
57250;BME280;43102;52.014;-0.680;2023-04-19T02:01:00;101775;;;10.47;70.77
57250;BME280;43102;52.014;-0.680;2023-04-19T02:02:00;101775;;;10.47;70.77
57250;BME280;43102;52.014;-0.680;2023-04-19T02:03:00;101775;;;10.47;70.77
57250;BME280;43102;52.014;-0.680;2023-04-19T02:04:01;101775;;;10.47;70.77
57250;BME280;43102;52.014;-0.680;2023-04-19T02:05:00;101775;;;10.47;70.77
57250;BME280;43102;52.014;-0.680;2023-04-19T02:06:00;101769;;;10.40;70.97
57250;BME280;43102;52.014;-0.680;2023-04-19T02:07:00;101769;;;10.40;70.97
57250;BME280;43102;52.014;-0.680;2023-04-19T02:08:00;101769;;;10.40;70.97
57250;BME280;43102;52.014;-0.680;2023-04-19T02:09:00;101769;;;10.40;70.97
57250;BME280;43102;52.014;-0.680;2023-04-19T02:10:00;101769;;;10.40;70.97
57250;BME280;43102;52.014;-0.680;2023-04-19T02:11:04;101772;;;10.42;70.91
57250;BME280;43102;52.014;-0.680;2023-04-19T02:12:00;101772;;;10.42;70.91
57250;BME280;43102;52.014;-0.680;2023-04-19T02:13:00;101772;;;10.42;70.91
57250;BME280;43102;52.014;-0.680;2023-04-19T02:14:00;101772;;;10.42;70.91
57250;BME280;43102;52.014;-0.680;2023-04-19T02:15:00;101772;;;10.42;70.91
57250;BME280;43102;52.014;-0.680;2023-04-19T02:16:00;101766;;;10.29;71.46
57250;BME280;43102;52.014;-0.680;2023-04-19T02:17:00;101766;;;10.29;71.46
57250;BME280;43102;52.014;-0.680;2023-04-19T02:18:00;101766;;;10.29;71.46
57250;BME280;43102;52.014;-0.680;2023-04-19T02:19:00;101766;;;10.29;71.46
57250;BME280;43102;52.014;-0.680;2023-04-19T02:20:00;101766;;;10.29;71.46
57250;BME280;43102;52.014;-0.680;2023-04-19T02:21:00;101767;;;10.32;71.46
57250;BME280;43102;52.014;-0.680;2023-04-19T02:22:00;101767;;;10.32;71.46
57250;BME280;43102;52.014;-0.680;2023-04-19T02:23:00;101767;;;10.32;71.46
57250;BME280;43102;52.014;-0.680;2023-04-19T02:24:00;101767;;;10.32;71.46
57250;BME280;43102;52.014;-0.680;2023-04-19T02:25:00;101767;;;10.32;71.46
57250;BME280;43102;52.014;-0.680;2023-04-19T02:26:00;101763;;;10.24;71.68
57250;BME280;43102;52.014;-0.680;2023-04-19T02:27:00;101763;;;10.24;71.68
57250;BME280;43102;52.014;-0.680;2023-04-19T02:28:00;101763;;;10.24;71.68
57250;BME280;43102;52.014;-0.680;2023-04-19T02:29:00;101763;;;10.24;71.68
57250;BME280;43102;52.014;-0.680;2023-04-19T02:30:00;101763;;;10.24;71.68
57250;BME280;43102;52.014;-0.680;2023-04-19T02:31:02;101762;;;10.21;71.88
57250;BME280;43102;52.014;-0.680;2023-04-19T02:32:00;101762;;;10.21;71.88
57250;BME280;43102;52.014;-0.680;2023-04-19T02:33:00;101762;;;10.21;71.88
57250;BME280;43102;52.014;-0.680;2023-04-19T02:34:00;101762;;;10.21;71.88
57250;BME280;43102;52.014;-0.680;2023-04-19T02:35:00;101762;;;10.21;71.88
57250;BME280;43102;52.014;-0.680;2023-04-19T02:36:00;101755;;;10.28;71.72
57250;BME280;43102;52.014;-0.680;2023-04-19T02:37:00;101755;;;10.28;71.72
57250;BME280;43102;52.014;-0.680;2023-04-19T02:38:01;101755;;;10.28;71.72
57250;BME280;43102;52.014;-0.680;2023-04-19T02:39:00;101755;;;10.28;71.72
57250;BME280;43102;52.014;-0.680;2023-04-19T02:40:00;101755;;;10.28;71.72
57250;BME280;43102;52.014;-0.680;2023-04-19T02:41:00;101753;;;10.18;72.14
57250;BME280;43102;52.014;-0.680;2023-04-19T02:42:00;101753;;;10.18;72.14
57250;BME280;43102;52.014;-0.680;2023-04-19T02:43:00;101753;;;10.18;72.14
57250;BME280;43102;52.014;-0.680;2023-04-19T02:44:00;101753;;;10.18;72.14
57250;BME280;43102;52.014;-0.680;2023-04-19T02:45:00;101753;;;10.18;72.14
57250;BME280;43102;52.014;-0.680;2023-04-19T02:46:00;101747;;;10.08;72.29
57250;BME280;43102;52.014;-0.680;2023-04-19T02:47:00;101747;;;10.08;72.29
57250;BME280;43102;52.014;-0.680;2023-04-19T02:48:00;101747;;;10.08;72.29
57250;BME280;43102;52.014;-0.680;2023-04-19T02:49:00;101747;;;10.08;72.29
57250;BME280;43102;52.014;-0.680;2023-04-19T02:50:00;101747;;;10.08;72.29
57250;BME280;43102;52.014;-0.680;2023-04-19T02:51:00;101744;;;9.93;72.96
57250;BME280;43102;52.014;-0.680;2023-04-19T02:52:00;101744;;;9.93;72.96
57250;BME280;43102;52.014;-0.680;2023-04-19T02:53:00;101744;;;9.93;72.96
57250;BME280;43102;52.014;-0.680;2023-04-19T02:54:00;101744;;;9.93;72.96
57250;BME280;43102;52.014;-0.680;2023-04-19T02:55:00;101744;;;9.93;72.96
57250;BME280;43102;52.014;-0.680;2023-04-19T02:56:00;101743;;;9.95;72.89
57250;BME280;43102;52.014;-0.680;2023-04-19T02:57:00;101743;;;9.95;72.89
57250;BME280;43102;52.014;-0.680;2023-04-19T02:58:00;101743;;;9.95;72.89
57250;BME280;43102;52.014;-0.680;2023-04-19T02:59:00;101743;;;9.95;72.89
57250;BME280;43102;52.014;-0.680;2023-04-19T03:00:00;101743;;;9.95;72.89
57250;BME280;43102;52.014;-0.680;2023-04-19T03:01:00;101734;;;9.91;72.99
57250;BME280;43102;52.014;-0.680;2023-04-19T03:02:00;101734;;;9.91;72.99
57250;BME280;43102;52.014;-0.680;2023-04-19T03:03:00;101734;;;9.91;72.99
57250;BME280;43102;52.014;-0.680;2023-04-19T03:04:00;101734;;;9.91;72.99
57250;BME280;43102;52.014;-0.680;2023-04-19T03:05:00;101734;;;9.91;72.99
57250;BME280;43102;52.014;-0.680;2023-04-19T03:06:00;101737;;;9.80;73.57
57250;BME280;43102;52.014;-0.680;2023-04-19T03:07:00;101737;;;9.80;73.57
57250;BME280;43102;52.014;-0.680;2023-04-19T03:08:00;101737;;;9.80;73.57
57250;BME280;43102;52.014;-0.680;2023-04-19T03:09:00;101737;;;9.80;73.57
57250;BME280;43102;52.014;-0.680;2023-04-19T03:10:00;101737;;;9.80;73.57
57250;BME280;43102;52.014;-0.680;2023-04-19T03:11:00;101735;;;9.72;73.80
57250;BME280;43102;52.014;-0.680;2023-04-19T03:12:00;101735;;;9.72;73.80
57250;BME280;43102;52.014;-0.680;2023-04-19T03:13:00;101735;;;9.72;73.80
57250;BME280;43102;52.014;-0.680;2023-04-19T03:14:00;101735;;;9.72;73.80
57250;BME280;43102;52.014;-0.680;2023-04-19T03:15:00;101735;;;9.72;73.80
57250;BME280;43102;52.014;-0.680;2023-04-19T03:16:00;101732;;;9.49;74.71
57250;BME280;43102;52.014;-0.680;2023-04-19T03:17:00;101732;;;9.49;74.71
57250;BME280;43102;52.014;-0.680;2023-04-19T03:18:00;101732;;;9.49;74.71
57250;BME280;43102;52.014;-0.680;2023-04-19T03:19:00;101732;;;9.49;74.71
57250;BME280;43102;52.014;-0.680;2023-04-19T03:20:00;101732;;;9.49;74.71
57250;BME280;43102;52.014;-0.680;2023-04-19T03:21:00;101740;;;9.45;75.15
57250;BME280;43102;52.014;-0.680;2023-04-19T03:22:00;101740;;;9.45;75.15
57250;BME280;43102;52.014;-0.680;2023-04-19T03:23:00;101740;;;9.45;75.15
57250;BME280;43102;52.014;-0.680;2023-04-19T03:24:00;101740;;;9.45;75.15
57250;BME280;43102;52.014;-0.680;2023-04-19T03:25:00;101740;;;9.45;75.15
57250;BME280;43102;52.014;-0.680;2023-04-19T03:26:00;101743;;;9.51;75.13
57250;BME280;43102;52.014;-0.680;2023-04-19T03:27:00;101743;;;9.51;75.13
57250;BME280;43102;52.014;-0.680;2023-04-19T03:28:00;101743;;;9.51;75.13
57250;BME280;43102;52.014;-0.680;2023-04-19T03:29:00;101743;;;9.51;75.13
57250;BME280;43102;52.014;-0.680;2023-04-19T03:30:00;101743;;;9.51;75.13
57250;BME280;43102;52.014;-0.680;2023-04-19T03:31:00;101739;;;9.37;75.43
57250;BME280;43102;52.014;-0.680;2023-04-19T03:32:00;101739;;;9.37;75.43
57250;BME280;43102;52.014;-0.680;2023-04-19T03:33:00;101739;;;9.37;75.43
57250;BME280;43102;52.014;-0.680;2023-04-19T03:34:00;101739;;;9.37;75.43
57250;BME280;43102;52.014;-0.680;2023-04-19T03:35:00;101739;;;9.37;75.43
57250;BME280;43102;52.014;-0.680;2023-04-19T03:36:00;101738;;;9.28;75.98
57250;BME280;43102;52.014;-0.680;2023-04-19T03:37:00;101738;;;9.28;75.98
57250;BME280;43102;52.014;-0.680;2023-04-19T03:38:00;101738;;;9.28;75.98
57250;BME280;43102;52.014;-0.680;2023-04-19T03:39:01;101738;;;9.28;75.98
57250;BME280;43102;52.014;-0.680;2023-04-19T03:40:00;101738;;;9.28;75.98
57250;BME280;43102;52.014;-0.680;2023-04-19T03:41:00;101745;;;9.28;76.02
57250;BME280;43102;52.014;-0.680;2023-04-19T03:42:00;101745;;;9.28;76.02
57250;BME280;43102;52.014;-0.680;2023-04-19T03:43:00;101745;;;9.28;76.02
57250;BME280;43102;52.014;-0.680;2023-04-19T03:44:00;101745;;;9.28;76.02
57250;BME280;43102;52.014;-0.680;2023-04-19T03:45:00;101745;;;9.28;76.02
57250;BME280;43102;52.014;-0.680;2023-04-19T03:46:00;101745;;;9.12;77.00
57250;BME280;43102;52.014;-0.680;2023-04-19T03:47:00;101745;;;9.12;77.00
57250;BME280;43102;52.014;-0.680;2023-04-19T03:48:00;101745;;;9.12;77.00
57250;BME280;43102;52.014;-0.680;2023-04-19T03:49:00;101745;;;9.12;77.00
57250;BME280;43102;52.014;-0.680;2023-04-19T03:50:00;101745;;;9.12;77.00
57250;BME280;43102;52.014;-0.680;2023-04-19T03:51:00;101743;;;9.22;76.50
57250;BME280;43102;52.014;-0.680;2023-04-19T03:52:00;101743;;;9.22;76.50
57250;BME280;43102;52.014;-0.680;2023-04-19T03:53:00;101743;;;9.22;76.50
57250;BME280;43102;52.014;-0.680;2023-04-19T03:54:00;101743;;;9.22;76.50
57250;BME280;43102;52.014;-0.680;2023-04-19T03:55:00;101743;;;9.22;76.50
57250;BME280;43102;52.014;-0.680;2023-04-19T03:56:00;101743;;;9.24;76.29
57250;BME280;43102;52.014;-0.680;2023-04-19T03:57:00;101743;;;9.24;76.29
57250;BME280;43102;52.014;-0.680;2023-04-19T03:58:00;101743;;;9.24;76.29
57250;BME280;43102;52.014;-0.680;2023-04-19T03:59:00;101743;;;9.24;76.29
57250;BME280;43102;52.014;-0.680;2023-04-19T04:00:00;101743;;;9.24;76.29
57250;BME280;43102;52.014;-0.680;2023-04-19T04:01:00;101737;;;9.22;76.10
57250;BME280;43102;52.014;-0.680;2023-04-19T04:02:00;101737;;;9.22;76.10
57250;BME280;43102;52.014;-0.680;2023-04-19T04:03:00;101737;;;9.22;76.10
57250;BME280;43102;52.014;-0.680;2023-04-19T04:04:00;101737;;;9.22;76.10
57250;BME280;43102;52.014;-0.680;2023-04-19T04:05:00;101737;;;9.22;76.10
57250;BME280;43102;52.014;-0.680;2023-04-19T04:06:00;101743;;;9.02;77.09
57250;BME280;43102;52.014;-0.680;2023-04-19T04:07:00;101743;;;9.02;77.09
57250;BME280;43102;52.014;-0.680;2023-04-19T04:08:00;101743;;;9.02;77.09
57250;BME280;43102;52.014;-0.680;2023-04-19T04:09:00;101743;;;9.02;77.09
57250;BME280;43102;52.014;-0.680;2023-04-19T04:10:00;101743;;;9.02;77.09
57250;BME280;43102;52.014;-0.680;2023-04-19T04:11:00;101733;;;9.18;76.58
57250;BME280;43102;52.014;-0.680;2023-04-19T04:12:00;101733;;;9.18;76.58
57250;BME280;43102;52.014;-0.680;2023-04-19T04:13:00;101733;;;9.18;76.58
57250;BME280;43102;52.014;-0.680;2023-04-19T04:14:00;101733;;;9.18;76.58
57250;BME280;43102;52.014;-0.680;2023-04-19T04:15:00;101733;;;9.18;76.58
57250;BME280;43102;52.014;-0.680;2023-04-19T04:16:00;101734;;;9.08;76.78
57250;BME280;43102;52.014;-0.680;2023-04-19T04:17:00;101734;;;9.08;76.78
57250;BME280;43102;52.014;-0.680;2023-04-19T04:18:00;101734;;;9.08;76.78
57250;BME280;43102;52.014;-0.680;2023-04-19T04:19:00;101734;;;9.08;76.78
57250;BME280;43102;52.014;-0.680;2023-04-19T04:20:00;101734;;;9.08;76.78
57250;BME280;43102;52.014;-0.680;2023-04-19T04:21:00;101737;;;9.06;77.02
57250;BME280;43102;52.014;-0.680;2023-04-19T04:22:02;101737;;;9.06;77.02
57250;BME280;43102;52.014;-0.680;2023-04-19T04:23:00;101737;;;9.06;77.02
57250;BME280;43102;52.014;-0.680;2023-04-19T04:24:00;101737;;;9.06;77.02
57250;BME280;43102;52.014;-0.680;2023-04-19T04:25:00;101737;;;9.06;77.02
57250;BME280;43102;52.014;-0.680;2023-04-19T04:26:00;101731;;;9.07;76.92
57250;BME280;43102;52.014;-0.680;2023-04-19T04:27:00;101731;;;9.07;76.92
57250;BME280;43102;52.014;-0.680;2023-04-19T04:28:00;101731;;;9.07;76.92
57250;BME280;43102;52.014;-0.680;2023-04-19T04:29:00;101731;;;9.07;76.92
57250;BME280;43102;52.014;-0.680;2023-04-19T04:30:00;101731;;;9.07;76.92
57250;BME280;43102;52.014;-0.680;2023-04-19T04:31:00;101728;;;8.89;77.53
57250;BME280;43102;52.014;-0.680;2023-04-19T04:32:00;101728;;;8.89;77.53
57250;BME280;43102;52.014;-0.680;2023-04-19T04:33:00;101728;;;8.89;77.53
57250;BME280;43102;52.014;-0.680;2023-04-19T04:34:00;101728;;;8.89;77.53
57250;BME280;43102;52.014;-0.680;2023-04-19T04:35:00;101728;;;8.89;77.53
57250;BME280;43102;52.014;-0.680;2023-04-19T04:36:00;101732;;;8.82;77.70
57250;BME280;43102;52.014;-0.680;2023-04-19T04:37:00;101732;;;8.82;77.70
57250;BME280;43102;52.014;-0.680;2023-04-19T04:38:00;101732;;;8.82;77.70
57250;BME280;43102;52.014;-0.680;2023-04-19T04:39:00;101732;;;8.82;77.70
57250;BME280;43102;52.014;-0.680;2023-04-19T04:40:00;101732;;;8.82;77.70
57250;BME280;43102;52.014;-0.680;2023-04-19T04:41:00;101729;;;8.85;77.76
57250;BME280;43102;52.014;-0.680;2023-04-19T04:42:00;101729;;;8.85;77.76
57250;BME280;43102;52.014;-0.680;2023-04-19T04:43:00;101729;;;8.85;77.76
57250;BME280;43102;52.014;-0.680;2023-04-19T04:44:00;101729;;;8.85;77.76
57250;BME280;43102;52.014;-0.680;2023-04-19T04:45:00;101729;;;8.85;77.76
57250;BME280;43102;52.014;-0.680;2023-04-19T04:46:00;101736;;;8.79;77.96
57250;BME280;43102;52.014;-0.680;2023-04-19T04:47:00;101736;;;8.79;77.96
57250;BME280;43102;52.014;-0.680;2023-04-19T04:48:00;101736;;;8.79;77.96
57250;BME280;43102;52.014;-0.680;2023-04-19T04:49:00;101736;;;8.79;77.96
57250;BME280;43102;52.014;-0.680;2023-04-19T04:50:00;101736;;;8.79;77.96
57250;BME280;43102;52.014;-0.680;2023-04-19T04:51:00;101730;;;8.92;77.61
57250;BME280;43102;52.014;-0.680;2023-04-19T04:52:00;101730;;;8.92;77.61
57250;BME280;43102;52.014;-0.680;2023-04-19T04:53:00;101730;;;8.92;77.61
57250;BME280;43102;52.014;-0.680;2023-04-19T04:54:00;101730;;;8.92;77.61
57250;BME280;43102;52.014;-0.680;2023-04-19T04:55:00;101730;;;8.92;77.61
57250;BME280;43102;52.014;-0.680;2023-04-19T04:56:00;101736;;;8.88;77.87
57250;BME280;43102;52.014;-0.680;2023-04-19T04:57:00;101736;;;8.88;77.87
57250;BME280;43102;52.014;-0.680;2023-04-19T04:58:00;101736;;;8.88;77.87
57250;BME280;43102;52.014;-0.680;2023-04-19T04:59:00;101736;;;8.88;77.87
57250;BME280;43102;52.014;-0.680;2023-04-19T05:00:00;101736;;;8.88;77.87
57250;BME280;43102;52.014;-0.680;2023-04-19T05:01:00;101736;;;8.89;77.78
57250;BME280;43102;52.014;-0.680;2023-04-19T05:02:00;101736;;;8.89;77.78
57250;BME280;43102;52.014;-0.680;2023-04-19T05:03:00;101736;;;8.89;77.78
57250;BME280;43102;52.014;-0.680;2023-04-19T05:04:00;101736;;;8.89;77.78
57250;BME280;43102;52.014;-0.680;2023-04-19T05:05:00;101736;;;8.89;77.78
57250;BME280;43102;52.014;-0.680;2023-04-19T05:06:00;101739;;;8.91;77.55
57250;BME280;43102;52.014;-0.680;2023-04-19T05:07:00;101739;;;8.91;77.55
57250;BME280;43102;52.014;-0.680;2023-04-19T05:08:00;101739;;;8.91;77.55
57250;BME280;43102;52.014;-0.680;2023-04-19T05:09:00;101739;;;8.91;77.55
57250;BME280;43102;52.014;-0.680;2023-04-19T05:10:00;101739;;;8.91;77.55
57250;BME280;43102;52.014;-0.680;2023-04-19T05:11:00;101734;;;8.78;78.18
57250;BME280;43102;52.014;-0.680;2023-04-19T05:12:00;101734;;;8.78;78.18
57250;BME280;43102;52.014;-0.680;2023-04-19T05:13:00;101734;;;8.78;78.18
57250;BME280;43102;52.014;-0.680;2023-04-19T05:14:00;101734;;;8.78;78.18
57250;BME280;43102;52.014;-0.680;2023-04-19T05:15:00;101734;;;8.78;78.18
57250;BME280;43102;52.014;-0.680;2023-04-19T05:16:00;101735;;;8.61;78.68
57250;BME280;43102;52.014;-0.680;2023-04-19T05:17:00;101735;;;8.61;78.68
57250;BME280;43102;52.014;-0.680;2023-04-19T05:18:00;101735;;;8.61;78.68
57250;BME280;43102;52.014;-0.680;2023-04-19T05:19:00;101735;;;8.61;78.68
57250;BME280;43102;52.014;-0.680;2023-04-19T05:20:00;101735;;;8.61;78.68
57250;BME280;43102;52.014;-0.680;2023-04-19T05:21:00;101735;;;8.63;79.04
57250;BME280;43102;52.014;-0.680;2023-04-19T05:22:00;101735;;;8.63;79.04
57250;BME280;43102;52.014;-0.680;2023-04-19T05:23:00;101735;;;8.63;79.04